createdAt,value
2022-08-01T00:01:14.950Z,100478.38
2022-08-01T00:03:42.202Z,100480.69
2022-08-01T00:06:08.927Z,100479.84
2022-08-01T00:08:35.624Z,100478.16
2022-08-01T00:11:03.019Z,100479.00
2022-08-01T00:13:29.924Z,100486.13
2022-08-01T00:15:56.674Z,100479.63
2022-08-01T00:18:23.548Z,100489.50
2022-08-01T00:20:50.369Z,100484.03
2022-08-01T00:23:17.137Z,100485.72
2022-08-01T00:25:43.845Z,100480.91
2022-08-01T00:28:10.833Z,100475.00
2022-08-01T00:30:37.834Z,100477.75
2022-08-01T00:33:04.751Z,100471.66
2022-08-01T00:35:31.578Z,100474.19
2022-08-01T00:37:58.294Z,100469.56
2022-08-01T00:40:25.030Z,100472.28
2022-08-01T00:42:51.766Z,100470.38
2022-08-01T00:45:18.592Z,100462.44
2022-08-01T00:47:45.652Z,100463.72
2022-08-01T00:50:12.813Z,100469.16
2022-08-01T00:52:41.738Z,100467.47
2022-08-01T00:55:15.098Z,100474.19
2022-08-01T00:58:02.833Z,100464.94
2022-08-01T01:00:52.006Z,100459.28
2022-08-01T01:03:23.892Z,100462.00
2022-08-01T01:06:37.668Z,100461.63
2022-08-01T01:09:36.273Z,100468.31
2022-08-01T01:12:39.092Z,100463.91
2022-08-01T01:16:13.184Z,100462.22
2022-08-01T01:18:58.594Z,100466.63
2022-08-01T01:22:05.030Z,100472.09
2022-08-01T01:25:03.662Z,100471.03
2022-08-01T01:27:52.504Z,100470.84
2022-08-01T01:30:20.079Z,100466.22
2022-08-01T01:32:53.247Z,100466.22
2022-08-01T01:35:31.911Z,100468.31
2022-08-01T01:38:23.776Z,100468.09
2022-08-01T01:40:59.821Z,100474.81
2022-08-01T01:43:33.447Z,100471.44
2022-08-01T01:46:03.354Z,100478.81
2022-08-01T01:48:32.029Z,100470.38
2022-08-01T01:51:01.312Z,100483.84
2022-08-01T01:53:31.905Z,100480.28
2022-08-01T01:56:02.151Z,100481.31
2022-08-01T01:58:35.250Z,100473.13
2022-08-01T02:01:14.365Z,100473.13
2022-08-01T02:03:44.461Z,100478.16
2022-08-01T02:06:16.931Z,100465.78
2022-08-01T02:08:48.729Z,100476.06
2022-08-01T02:11:22.396Z,100479.00
2022-08-01T02:14:05.660Z,100483.44
2022-08-01T02:16:45.131Z,100479.00
2022-08-01T02:19:13.326Z,100485.72
2022-08-01T02:22:21.574Z,100482.34
2022-08-01T02:25:20.109Z,100481.69
2022-08-01T02:28:39.442Z,100482.97
2022-08-01T02:31:17.003Z,100482.31
2022-08-01T02:34:03.105Z,100482.50
2022-08-01T02:36:38.870Z,100484.63
2022-08-01T02:39:20.021Z,100481.91
2022-08-01T02:41:58.075Z,100480.63
2022-08-01T02:44:33.742Z,100484.19
2022-08-01T02:47:05.633Z,100481.66
2022-08-01T02:49:53.181Z,100487.53
2022-08-01T02:52:26.171Z,100492.16
2022-08-01T02:54:58.011Z,100485.81
2022-08-01T02:57:30.138Z,100492.97
2022-08-01T03:00:17.533Z,100495.91
2022-08-01T03:02:49.430Z,100488.78
2022-08-01T03:05:18.690Z,100491.28
2022-08-01T03:07:48.472Z,100491.50
2022-08-01T03:10:18.535Z,100495.91
2022-08-01T03:12:50.427Z,100498.00
2022-08-01T03:15:20.733Z,100502.00
2022-08-01T03:17:55.779Z,100499.47
2022-08-01T03:20:28.179Z,100495.47
2022-08-01T03:22:58.946Z,100501.97
2022-08-01T03:25:28.855Z,100507.22
2022-08-01T03:28:02.184Z,100501.13
2022-08-01T03:30:32.244Z,100513.28
2022-08-01T03:32:59.596Z,100513.66
2022-08-01T03:35:43.552Z,100513.91
2022-08-01T03:38:17.323Z,100521.00
2022-08-01T03:41:22.014Z,100524.16
2022-08-01T03:44:04.633Z,100518.72
2022-08-01T03:46:48.147Z,100527.06
2022-08-01T03:49:42.885Z,100522.69
2022-08-01T03:52:11.177Z,100523.31
2022-08-01T03:54:50.591Z,100526.88
2022-08-01T03:57:36.050Z,100518.91
2022-08-01T04:00:09.200Z,100525.00
2022-08-01T04:02:37.853Z,100527.91
2022-08-01T04:05:06.596Z,100531.28
2022-08-01T04:07:39.987Z,100539.47
2022-08-01T04:10:07.944Z,100528.78
2022-08-01T04:12:35.854Z,100542.19
2022-08-01T04:15:03.751Z,100544.91
2022-08-01T04:17:30.628Z,100542.00
2022-08-01T04:19:57.545Z,100535.91
2022-08-01T04:22:24.413Z,100543.06
2022-08-01T04:24:59.509Z,100545.56
2022-08-01T04:27:51.015Z,100551.22
2022-08-01T04:30:30.860Z,100556.28
2022-08-01T04:33:02.127Z,100565.28
2022-08-01T04:36:01.449Z,100566.34
2022-08-01T04:38:28.359Z,100568.84
2022-08-01T04:40:57.348Z,100569.50
2022-08-01T04:43:24.439Z,100565.47
2022-08-01T04:45:52.869Z,100573.91
2022-08-01T04:48:23.181Z,100567.00
2022-08-01T04:50:58.270Z,100576.41
2022-08-01T04:53:25.158Z,100569.09
2022-08-01T04:55:51.877Z,100570.78
2022-08-01T04:58:19.248Z,100570.59
2022-08-01T05:00:49.799Z,100582.56
2022-08-01T05:03:16.863Z,100579.63
2022-08-01T05:05:43.745Z,100585.28
2022-08-01T05:08:11.001Z,100588.00
2022-08-01T05:10:37.886Z,100586.34
2022-08-01T05:13:04.668Z,100585.94
2022-08-01T05:15:32.064Z,100594.56
2022-08-01T05:17:59.214Z,100593.91
2022-08-01T05:20:26.020Z,100601.28
2022-08-01T05:22:52.687Z,100591.56
2022-08-01T05:25:20.666Z,100596.19
2022-08-01T05:28:06.150Z,100606.06
2022-08-01T05:30:32.946Z,100606.88
2022-08-01T05:32:59.597Z,100600.16
2022-08-01T05:35:47.518Z,100600.41
2022-08-01T05:38:15.261Z,100598.78
2022-08-01T05:40:42.119Z,100597.72
2022-08-01T05:43:08.807Z,100612.00
2022-08-01T05:45:35.488Z,100606.13
2022-08-01T05:48:02.312Z,100610.50
2022-08-01T05:50:29.432Z,100605.91
2022-08-01T05:52:56.192Z,100603.13
2022-08-01T05:55:22.888Z,100613.00
2022-08-01T05:57:49.559Z,100615.94
2022-08-01T06:00:17.150Z,100618.47
2022-08-01T06:02:49.001Z,100618.88
2022-08-01T06:05:16.788Z,100616.81
2022-08-01T06:07:43.887Z,100625.03
2022-08-01T06:10:11.057Z,100631.13
2022-08-01T06:12:38.871Z,100636.81
2022-08-01T06:15:08.919Z,100630.13
2022-08-01T06:17:35.719Z,100639.34
2022-08-01T06:20:03.007Z,100636.19
2022-08-01T06:22:29.867Z,100630.09
2022-08-01T06:24:58.208Z,100634.25
2022-08-01T06:27:27.967Z,100640.56
2022-08-01T06:29:54.811Z,100643.88
2022-08-01T06:32:26.663Z,100655.84
2022-08-01T06:34:56.422Z,100656.47
2022-08-01T06:37:24.284Z,100665.03
2022-08-01T06:39:51.143Z,100664.59
2022-08-01T06:42:18.497Z,100666.88
2022-08-01T06:44:46.042Z,100672.72
2022-08-01T06:47:13.434Z,100664.94
2022-08-01T06:49:40.128Z,100659.69
2022-08-01T06:52:10.651Z,100675.00
2022-08-01T06:54:40.634Z,100683.59
2022-08-01T06:57:09.973Z,100684.38
2022-08-01T06:59:36.921Z,100683.72
2022-08-01T07:02:04.268Z,100681.63
2022-08-01T07:04:31.699Z,100689.81
2022-08-01T07:06:58.975Z,100685.97
2022-08-01T07:09:26.369Z,100696.06
2022-08-01T07:11:54.020Z,100693.38
2022-08-01T07:14:22.967Z,100695.56
2022-08-01T07:16:51.043Z,100701.13
2022-08-01T07:19:19.053Z,100691.38
2022-08-01T07:21:45.750Z,100695.06
2022-08-01T07:24:20.876Z,100699.75
2022-08-01T07:26:52.492Z,100699.78
2022-08-01T07:29:25.367Z,100704.00
2022-08-01T07:31:56.896Z,100711.81
2022-08-01T07:34:25.660Z,100712.75
2022-08-01T07:36:54.220Z,100722.34
2022-08-01T07:39:21.596Z,100731.81
2022-08-01T07:42:06.159Z,100742.91
2022-08-01T07:44:35.896Z,100745.69
2022-08-01T07:47:02.918Z,100743.41
2022-08-01T07:49:29.967Z,100756.75
2022-08-01T07:52:03.897Z,100754.16
2022-08-01T07:54:35.325Z,100760.91
2022-08-01T07:57:03.981Z,100763.88
2022-08-01T07:59:31.301Z,100766.03
2022-08-01T08:01:58.972Z,100769.84
2022-08-01T08:04:27.495Z,100775.19
2022-08-01T08:06:55.151Z,100779.41
2022-08-01T08:09:22.261Z,100776.50
2022-08-01T08:11:49.853Z,100792.25
2022-08-01T08:14:19.648Z,100789.06
2022-08-01T08:16:46.921Z,100799.19
2022-08-01T08:19:14.368Z,100792.66
2022-08-01T08:21:42.177Z,100789.16
2022-08-01T08:24:26.491Z,100796.91
2022-08-01T08:27:04.496Z,100796.31
2022-08-01T08:29:35.361Z,100803.25
2022-08-01T08:32:07.750Z,100801.34
2022-08-01T08:34:35.140Z,100799.03
2022-08-01T08:37:02.025Z,100806.59
2022-08-01T08:39:30.481Z,100814.56
2022-08-01T08:42:01.274Z,100817.75
2022-08-01T08:44:27.964Z,100816.88
2022-08-01T08:46:58.913Z,100822.94
2022-08-01T08:49:36.066Z,100826.78
2022-08-01T08:52:06.160Z,100824.84
2022-08-01T08:54:39.584Z,100835.03
2022-08-01T08:57:08.551Z,100839.03
2022-08-01T08:59:35.697Z,100833.34
2022-08-01T09:02:02.683Z,100830.28
2022-08-01T09:04:29.949Z,100839.19
2022-08-01T09:06:56.727Z,100845.97
2022-08-01T09:09:24.584Z,100846.09
2022-08-01T09:11:56.823Z,100847.31
2022-08-01T09:14:31.052Z,100843.38
2022-08-01T09:17:09.395Z,100849.06
2022-08-01T09:19:43.937Z,100851.84
2022-08-01T09:22:23.432Z,100857.75
2022-08-01T09:25:11.860Z,100854.13
2022-08-01T09:27:44.222Z,100857.31
2022-08-01T09:30:23.515Z,100854.28
2022-08-01T09:33:11.206Z,100871.00
2022-08-01T09:35:46.389Z,100863.38
2022-08-01T09:38:28.050Z,100866.06
2022-08-01T09:40:59.833Z,100866.69
2022-08-01T09:43:32.431Z,100874.72
2022-08-01T09:46:06.490Z,100877.56
2022-08-01T09:48:55.315Z,100875.53
2022-08-01T09:51:59.133Z,100880.06
2022-08-01T09:54:35.213Z,100888.06
2022-08-01T09:57:19.219Z,100876.28
2022-08-01T09:59:58.669Z,100886.75
2022-08-01T10:02:40.938Z,100889.50
2022-08-01T10:05:18.702Z,100874.94
2022-08-01T10:08:07.920Z,100880.97
2022-08-01T10:10:37.439Z,100887.84
2022-08-01T10:13:06.299Z,100888.28
2022-08-01T10:15:38.039Z,100887.28
2022-08-01T10:18:16.393Z,100885.47
2022-08-01T10:20:56.343Z,100887.59
2022-08-01T10:23:40.222Z,100893.81
2022-08-01T10:26:13.565Z,100894.09
2022-08-01T10:28:47.747Z,100895.78
2022-08-01T10:31:15.354Z,100897.84
2022-08-01T10:33:50.629Z,100906.44
2022-08-01T10:36:22.552Z,100903.69
2022-08-01T10:38:51.146Z,100896.25
2022-08-01T10:41:21.919Z,100902.38
2022-08-01T10:43:48.733Z,100913.28
2022-08-01T10:46:21.758Z,100911.13
2022-08-01T10:49:04.292Z,100909.69
2022-08-01T10:51:34.900Z,100911.56
2022-08-01T10:54:19.937Z,100919.47
2022-08-01T10:56:53.836Z,100921.66
2022-08-01T10:59:51.112Z,100923.34
2022-08-01T11:02:41.743Z,100922.50
2022-08-01T11:05:24.199Z,100920.59
2022-08-01T11:07:55.560Z,100924.78
2022-08-01T11:10:39.738Z,100922.50
2022-08-01T11:13:13.613Z,100932.81
2022-08-01T11:15:49.999Z,100924.78
2022-08-01T11:18:32.675Z,100916.50
2022-08-01T11:21:58.868Z,100927.16
2022-08-01T11:23:57.831Z,100929.94
2022-08-01T11:26:29.276Z,100918.56
2022-08-01T11:29:20.908Z,100923.66
2022-08-01T11:31:49.004Z,100922.47
2022-08-01T11:34:17.283Z,100931.13
2022-08-01T11:37:00.067Z,100934.63
2022-08-01T11:39:27.570Z,100931.69
2022-08-01T11:41:55.639Z,100931.59
2022-08-01T11:44:28.245Z,100934.00
2022-08-01T11:47:09.451Z,100937.56
2022-08-01T11:49:45.246Z,100933.78
2022-08-01T11:52:25.811Z,100931.94
2022-08-01T11:55:18.680Z,100929.25
2022-08-01T11:57:45.354Z,100942.06
2022-08-01T12:00:19.744Z,100948.28
2022-08-01T12:02:59.442Z,100926.13
2022-08-01T12:05:32.696Z,100939.38
2022-08-01T12:08:10.124Z,100942.47
2022-08-01T12:10:49.431Z,100929.56
2022-08-01T12:13:18.945Z,100933.91
2022-08-01T12:15:47.296Z,100939.34
2022-08-01T12:18:14.771Z,100943.19
2022-08-01T12:21:02.042Z,100952.34
2022-08-01T12:23:28.870Z,100945.00
2022-08-01T12:25:55.596Z,100949.44
2022-08-01T12:28:23.592Z,100939.31
2022-08-01T12:30:51.041Z,100945.38
2022-08-01T12:33:21.415Z,100941.16
2022-08-01T12:35:49.139Z,100944.78
2022-08-01T12:38:27.844Z,100949.94
2022-08-01T12:40:55.701Z,100947.84
2022-08-01T12:43:29.245Z,100935.44
2022-08-01T12:46:02.541Z,100954.44
2022-08-01T12:48:32.446Z,100952.91
2022-08-01T12:51:03.317Z,100949.91
2022-08-01T12:53:40.147Z,100945.94
2022-08-01T12:56:11.599Z,100951.72
2022-08-01T12:58:50.902Z,100950.00
2022-08-01T13:01:31.090Z,100942.56
2022-08-01T13:04:05.714Z,100945.06
2022-08-01T13:06:33.757Z,100944.44
2022-08-01T13:09:12.482Z,100962.00
2022-08-01T13:11:39.414Z,100955.78
2022-08-01T13:14:30.713Z,100954.19
2022-08-01T13:16:57.699Z,100953.44
2022-08-01T13:19:48.169Z,100953.91
2022-08-01T13:22:14.935Z,100952.44
2022-08-01T13:24:41.735Z,100953.56
2022-08-01T13:27:08.560Z,100952.47
2022-08-01T13:29:39.526Z,100956.06
2022-08-01T13:32:27.817Z,100941.97
2022-08-01T13:35:11.241Z,100957.09
2022-08-01T13:37:41.249Z,100956.25
2022-08-01T13:40:11.510Z,100950.41
2022-08-01T13:42:39.326Z,100954.41
2022-08-01T13:45:14.409Z,100954.41
2022-08-01T13:48:03.890Z,100958.94
2022-08-01T13:50:32.976Z,100955.81
2022-08-01T13:52:59.893Z,100956.19
2022-08-01T13:55:28.928Z,100958.03
2022-08-01T13:58:00.858Z,100961.34
2022-08-01T14:00:27.647Z,100965.59
2022-08-01T14:02:54.414Z,100965.13
2022-08-01T14:05:21.106Z,100973.75
2022-08-01T14:07:49.853Z,100966.25
2022-08-01T14:10:24.748Z,100965.03
2022-08-01T14:12:51.673Z,100967.31
2022-08-01T14:15:19.038Z,100960.59
2022-08-01T14:18:07.842Z,100964.13
2022-08-01T14:20:39.281Z,100962.94
2022-08-01T14:23:08.968Z,100963.97
2022-08-01T14:26:01.745Z,100964.66
2022-08-01T14:28:28.997Z,100961.75
2022-08-01T14:31:02.355Z,100958.41
2022-08-01T14:33:30.023Z,100956.38
2022-08-01T14:36:06.234Z,100955.78
2022-08-01T14:38:46.872Z,100955.56
2022-08-01T14:41:16.045Z,100966.53
2022-08-01T14:43:43.495Z,100971.69
2022-08-01T14:46:13.137Z,100955.88
2022-08-01T14:48:39.996Z,100963.94
2022-08-01T14:51:08.134Z,100965.94
2022-08-01T14:53:37.391Z,100967.72
2022-08-01T14:56:08.059Z,100970.66
2022-08-01T14:58:36.213Z,100969.78
2022-08-01T15:01:05.305Z,100971.09
2022-08-01T15:03:33.044Z,100974.91
2022-08-01T15:06:00.295Z,100976.81
2022-08-01T15:08:27.418Z,100982.53
2022-08-01T15:10:54.082Z,100974.63
2022-08-01T15:13:20.817Z,100973.28
2022-08-01T15:15:50.616Z,100971.16
2022-08-01T15:18:17.512Z,100976.09
2022-08-01T15:20:44.841Z,100969.69
2022-08-01T15:23:11.597Z,100981.88
2022-08-01T15:25:40.430Z,100983.16
2022-08-01T15:28:12.777Z,100982.47
2022-08-01T15:30:39.901Z,100980.91
2022-08-01T15:33:07.230Z,100982.16
2022-08-01T15:35:34.702Z,100983.13
2022-08-01T15:38:01.986Z,100983.72
2022-08-01T15:40:29.454Z,100980.72
2022-08-01T15:42:56.458Z,100983.53
2022-08-01T15:48:10.802Z,100991.19
2022-08-01T15:50:39.369Z,100983.25
2022-08-01T15:53:07.682Z,100991.97
2022-08-01T15:55:38.873Z,100996.16
2022-08-01T15:58:08.127Z,100997.06
2022-08-01T16:00:39.194Z,100994.69
2022-08-01T16:03:10.335Z,100996.78
2022-08-01T16:05:43.798Z,100997.00
2022-08-01T16:08:13.658Z,100997.97
2022-08-01T16:10:41.033Z,100996.56
2022-08-01T16:13:08.262Z,101002.13
2022-08-01T16:15:37.989Z,100999.72
2022-08-01T16:18:15.909Z,100996.41
2022-08-01T16:20:45.828Z,100999.13
2022-08-01T16:23:15.591Z,101001.66
2022-08-01T16:25:44.601Z,101007.56
2022-08-01T16:28:12.230Z,101004.16
2022-08-01T16:30:41.608Z,101007.59
2022-08-01T16:33:42.880Z,101008.50
2022-08-01T16:36:07.910Z,101011.69
2022-08-01T16:38:43.588Z,101005.50
2022-08-01T16:41:19.980Z,101017.34
2022-08-01T16:43:53.413Z,101016.28
2022-08-01T16:46:24.833Z,101015.91
2022-08-01T16:48:51.719Z,101013.53
2022-08-01T16:51:18.542Z,101019.03
2022-08-01T16:53:45.260Z,101019.81
2022-08-01T16:56:12.342Z,101018.66
2022-08-01T16:58:41.565Z,101021.88
2022-08-01T17:01:56.155Z,101021.72
2022-08-01T17:03:59.434Z,101016.44
2022-08-01T17:06:28.233Z,101020.63
2022-08-01T17:08:55.064Z,101022.97
2022-08-01T17:11:21.952Z,101021.84
2022-08-01T17:13:48.996Z,101017.53
2022-08-01T17:16:15.798Z,101015.94
2022-08-01T17:18:45.237Z,101017.44
2022-08-01T17:21:12.032Z,101023.72
2022-08-01T17:23:41.751Z,101020.41
2022-08-01T17:26:08.531Z,101025.31
2022-08-01T17:28:39.552Z,101032.91
2022-08-01T17:31:07.475Z,101027.63
2022-08-01T17:33:46.085Z,101031.41
2022-08-01T17:36:17.776Z,101034.50
2022-08-01T17:38:47.884Z,101039.13
2022-08-01T17:41:14.901Z,101034.00
2022-08-01T17:43:41.985Z,101044.25
2022-08-01T17:46:09.261Z,101041.91
2022-08-01T17:48:36.539Z,101046.03
2022-08-01T17:51:03.979Z,101042.41
2022-08-01T17:53:30.813Z,101043.78
2022-08-01T17:55:58.887Z,101047.97
2022-08-01T17:58:48.802Z,101052.16
2022-08-01T18:01:18.904Z,101060.72
2022-08-01T18:03:47.473Z,101051.47
2022-08-01T18:06:18.947Z,101049.69
2022-08-01T18:08:47.963Z,101047.97
2022-08-01T18:11:17.135Z,101053.59
2022-08-01T18:13:44.721Z,101052.25
2022-08-01T18:16:13.326Z,101049.19
2022-08-01T18:18:45.866Z,101049.94
2022-08-01T18:21:13.022Z,101062.41
2022-08-01T18:23:51.454Z,101063.47
2022-08-01T18:26:21.841Z,101062.88
2022-08-01T18:28:49.458Z,101066.94
2022-08-01T18:31:17.819Z,101069.59
2022-08-01T18:33:48.972Z,101076.78
2022-08-01T18:36:32.975Z,101078.09
2022-08-01T18:39:10.116Z,101077.63
2022-08-01T18:41:39.350Z,101078.41
2022-08-01T18:44:07.975Z,101072.53
2022-08-01T18:46:40.321Z,101073.09
2022-08-01T18:49:10.896Z,101064.53
2022-08-01T18:51:44.230Z,101070.34
2022-08-01T18:54:12.558Z,101070.13
2022-08-01T18:56:39.373Z,101072.44
2022-08-01T18:59:06.708Z,101077.13
2022-08-01T19:01:33.705Z,101072.22
2022-08-01T19:04:00.680Z,101073.50
2022-08-01T19:06:28.871Z,101081.75
2022-08-01T19:09:01.538Z,101078.91
2022-08-01T19:11:30.920Z,101086.66
2022-08-01T19:13:58.791Z,101091.44
2022-08-01T19:16:30.040Z,101094.69
2022-08-01T19:18:56.815Z,101098.13
2022-08-01T19:21:23.859Z,101090.38
2022-08-01T19:24:08.869Z,101092.28
2022-08-01T19:26:40.224Z,101092.81
2022-08-01T19:29:22.670Z,101085.56
2022-08-01T19:31:51.842Z,101100.00
2022-08-01T19:34:26.657Z,101102.94
2022-08-01T19:36:58.477Z,101099.59
2022-08-01T19:39:27.306Z,101102.69
2022-08-01T19:41:59.386Z,101106.94
2022-08-01T19:44:29.587Z,101108.16
2022-08-01T19:46:56.851Z,101112.75
2022-08-01T19:49:24.401Z,101104.06
2022-08-01T19:52:15.271Z,101105.63
2022-08-01T19:54:45.519Z,101108.66
2022-08-01T19:57:16.116Z,101109.84
2022-08-01T19:59:47.333Z,101107.16
2022-08-01T20:02:25.405Z,101105.25
2022-08-01T20:04:52.703Z,101109.50
2022-08-01T20:07:19.496Z,101116.44
2022-08-01T20:09:48.459Z,101118.97
2022-08-01T20:12:15.480Z,101124.06
2022-08-01T20:14:43.796Z,101131.50
2022-08-01T20:17:10.681Z,101131.34
2022-08-01T20:19:51.253Z,101134.22
2022-08-01T20:22:29.266Z,101122.38
2022-08-01T20:25:00.086Z,101130.13
2022-08-01T20:27:34.314Z,101131.47
2022-08-01T20:30:01.372Z,101134.00
2022-08-01T20:32:34.464Z,101123.66
2022-08-01T20:35:06.485Z,101123.63
2022-08-01T20:38:06.066Z,101122.75
2022-08-01T20:40:27.749Z,101132.56
2022-08-01T20:42:57.527Z,101137.25
2022-08-01T20:45:27.157Z,101139.56
2022-08-01T20:48:02.972Z,101134.44
2022-08-01T20:50:53.887Z,101125.06
2022-08-01T20:53:26.848Z,101142.63
2022-08-01T20:56:30.071Z,101148.16
2022-08-01T20:59:39.806Z,101141.81
2022-08-01T21:03:02.409Z,101142.22
2022-08-01T21:05:58.699Z,101148.13
2022-08-01T21:08:47.575Z,101160.00
2022-08-01T21:11:25.910Z,101157.50
2022-08-01T21:14:15.328Z,101148.19
2022-08-01T21:17:05.598Z,101148.00
2022-08-01T21:19:41.395Z,101151.59
2022-08-01T21:22:41.652Z,101155.28
2022-08-01T21:25:23.247Z,101149.66
2022-08-01T21:27:53.122Z,101156.72
2022-08-01T21:30:21.205Z,101159.06
2022-08-01T21:32:49.750Z,101163.44
2022-08-01T21:35:22.825Z,101159.88
2022-08-01T21:37:52.651Z,101164.47
2022-08-01T21:40:24.326Z,101164.75
2022-08-01T21:42:54.583Z,101163.91
2022-08-01T21:45:27.439Z,101161.34
2022-08-01T21:47:57.113Z,101157.97
2022-08-01T21:50:24.873Z,101154.63
2022-08-01T21:53:31.886Z,101147.16
2022-08-01T21:56:38.833Z,101156.03
2022-08-01T21:59:51.243Z,101158.66
2022-08-01T22:02:35.476Z,101154.84
2022-08-01T22:05:11.081Z,101157.59
2022-08-01T22:07:58.764Z,101165.16
2022-08-01T22:10:27.368Z,101161.53
2022-08-01T22:12:55.078Z,101163.38
2022-08-01T22:15:44.321Z,101162.84
2022-08-01T22:18:12.162Z,101168.28
2022-08-01T22:20:40.422Z,101176.72
2022-08-01T22:23:07.745Z,101174.84
2022-08-01T22:25:36.181Z,101177.03
2022-08-01T22:28:09.329Z,101176.59
2022-08-01T22:30:49.562Z,101168.09
2022-08-01T22:33:18.027Z,101162.28
2022-08-01T22:35:52.811Z,101171.38
2022-08-01T22:38:24.667Z,101152.22
2022-08-01T22:41:06.726Z,101163.78
2022-08-01T22:44:25.474Z,101153.09
2022-08-01T22:47:07.750Z,101166.22
2022-08-01T22:50:00.620Z,101164.22
2022-08-01T22:52:39.619Z,101164.09
2022-08-01T22:55:10.769Z,101156.97
2022-08-01T22:58:12.061Z,101164.09
2022-08-01T23:00:42.930Z,101163.38
2022-08-01T23:03:24.258Z,101158.13
2022-08-01T23:06:20.457Z,101155.84
2022-08-01T23:08:51.370Z,101152.59
2022-08-01T23:11:24.258Z,101159.44
2022-08-01T23:13:52.487Z,101170.97
2022-08-01T23:16:20.285Z,101165.47
2022-08-01T23:18:49.132Z,101168.88
2022-08-01T23:21:19.764Z,101161.91
2022-08-01T23:23:48.654Z,101163.91
2022-08-01T23:26:17.260Z,101160.81
2022-08-01T23:28:45.854Z,101159.97
2022-08-01T23:31:17.029Z,101160.22
2022-08-01T23:33:44.092Z,101160.78
2022-08-01T23:36:11.430Z,101170.72
2022-08-01T23:38:38.209Z,101163.91
2022-08-01T23:41:14.846Z,101166.16
2022-08-01T23:43:52.040Z,101165.72
2022-08-01T23:46:19.732Z,101167.75
2022-08-01T23:48:46.866Z,101167.03
2022-08-01T23:51:23.907Z,101162.34
2022-08-01T23:53:54.017Z,101163.03
2022-08-01T23:56:25.314Z,101159.50
2022-08-01T23:58:54.931Z,101163.03
